createdAt,value
2022-09-04T00:00:10.269Z,100980.59
2022-09-04T00:03:26.340Z,100990.81
2022-09-04T00:06:38.365Z,100988.06
2022-09-04T00:09:52.701Z,100983.88
2022-09-04T00:13:01.339Z,100979.72
2022-09-04T00:16:08.993Z,100976.50
2022-09-04T00:19:17.098Z,100986.44
2022-09-04T00:22:29.807Z,100984.19
2022-09-04T00:25:36.371Z,100983.63
2022-09-04T00:28:42.516Z,100986.31
2022-09-04T00:31:51.445Z,100980.66
2022-09-04T00:35:04.879Z,100982.53
2022-09-04T00:38:13.024Z,100990.09
2022-09-04T00:41:25.110Z,100990.22
2022-09-04T00:44:48.612Z,100997.47
2022-09-04T00:48:10.684Z,100992.22
2022-09-04T00:51:22.585Z,101000.22
2022-09-04T00:54:36.106Z,100998.31
2022-09-04T00:57:57.780Z,101011.22
2022-09-04T01:01:01.340Z,101008.19
2022-09-04T01:04:23.495Z,100999.53
2022-09-04T01:07:50.352Z,100999.03
2022-09-04T01:11:09.881Z,101000.09
2022-09-04T01:14:19.942Z,100996.31
2022-09-04T01:17:31.393Z,100992.47
2022-09-04T01:20:53.818Z,100990.94
2022-09-04T01:24:19.823Z,101002.28
2022-09-04T01:27:28.583Z,100992.31
2022-09-04T01:30:38.448Z,100993.88
2022-09-04T01:33:53.480Z,100997.41
2022-09-04T01:36:59.801Z,101000.63
2022-09-04T01:40:15.810Z,101004.25
2022-09-04T01:43:21.999Z,101007.41
2022-09-04T01:46:40.224Z,101012.16
2022-09-04T01:49:49.999Z,101001.88
2022-09-04T01:52:59.609Z,101002.28
2022-09-04T01:56:11.252Z,101002.66
2022-09-04T01:59:26.763Z,101013.81
2022-09-04T02:02:37.488Z,101008.19
2022-09-04T02:05:50.109Z,101016.91
2022-09-04T02:09:10.935Z,101012.22
2022-09-04T02:12:36.002Z,101014.75
2022-09-04T02:15:44.893Z,101014.88
2022-09-04T02:18:56.888Z,101019.69
2022-09-04T02:22:03.457Z,101018.03
2022-09-04T02:25:17.286Z,101012.59
2022-09-04T02:28:29.202Z,101010.56
2022-09-04T02:31:38.772Z,101008.25
2022-09-04T02:34:45.247Z,101008.97
2022-09-04T02:38:01.388Z,101005.13
2022-09-04T02:41:13.058Z,101002.06
2022-09-04T02:44:28.515Z,100999.97
2022-09-04T02:47:43.615Z,101010.41
2022-09-04T02:51:03.111Z,100998.31
2022-09-04T02:54:17.671Z,101007.19
2022-09-04T02:57:33.682Z,101015.88
2022-09-04T03:00:45.658Z,101013.78
2022-09-04T03:04:00.900Z,101019.94
2022-09-04T03:07:10.719Z,101016.34
2022-09-04T03:10:18.201Z,101017.69
2022-09-04T03:13:28.844Z,101016.47
2022-09-04T03:16:40.414Z,101023.25
2022-09-04T03:19:52.189Z,101018.41
2022-09-04T03:23:00.104Z,101017.31
2022-09-04T03:26:22.831Z,101023.47
2022-09-04T03:29:33.474Z,101025.50
2022-09-04T03:32:46.391Z,101029.31
2022-09-04T03:35:56.344Z,101031.09
2022-09-04T03:39:10.341Z,101033.25
2022-09-04T03:42:33.599Z,101028.88
2022-09-04T03:45:47.855Z,101030.25
2022-09-04T03:49:05.609Z,101031.38
2022-09-04T03:52:19.529Z,101032.59
2022-09-04T03:55:36.366Z,101031.19
2022-09-04T03:58:51.219Z,101038.28
2022-09-04T04:02:04.437Z,101038.59
2022-09-04T04:05:25.848Z,101036.25
2022-09-04T04:08:47.307Z,101047.38
2022-09-04T04:12:19.384Z,101056.91
2022-09-04T04:15:31.891Z,101053.13
2022-09-04T04:18:56.024Z,101047.03
2022-09-04T04:22:16.472Z,101053.41
2022-09-04T04:25:35.344Z,101059.31
2022-09-04T04:29:14.181Z,101051.34
2022-09-04T04:32:30.791Z,101046.63
2022-09-04T04:35:42.338Z,101054.19
2022-09-04T04:38:59.703Z,101052.28
2022-09-04T04:42:17.182Z,101059.50
2022-09-04T04:45:46.434Z,101066.44
2022-09-04T04:49:34.798Z,101076.56
2022-09-04T04:52:53.339Z,101074.44
2022-09-04T04:56:00.779Z,101085.03
2022-09-04T04:59:20.615Z,101077.75
2022-09-04T05:02:31.050Z,101095.72
2022-09-04T05:05:56.005Z,101104.38
2022-09-04T05:09:11.108Z,101103.78
2022-09-04T05:12:23.219Z,101110.09
2022-09-04T05:15:33.140Z,101113.00
2022-09-04T05:18:40.445Z,101114.47
2022-09-04T05:21:50.698Z,101121.72
2022-09-04T05:25:03.747Z,101124.38
2022-09-04T05:28:20.458Z,101124.38
2022-09-04T05:31:33.352Z,101144.28
2022-09-04T05:34:58.307Z,101149.22
2022-09-04T05:38:08.047Z,101148.25
2022-09-04T05:41:22.915Z,101158.47
2022-09-04T05:44:40.828Z,101168.06
2022-09-04T05:47:54.944Z,101174.09
2022-09-04T05:51:08.001Z,101175.06
2022-09-04T05:54:25.573Z,101165.72
2022-09-04T05:57:43.708Z,101169.91
2022-09-04T06:01:00.861Z,101176.66
2022-09-04T06:04:31.982Z,101182.84
2022-09-04T06:07:41.613Z,101189.50
2022-09-04T06:10:57.655Z,101188.19
2022-09-04T06:14:16.713Z,101192.78
2022-09-04T06:17:29.681Z,101195.91
2022-09-04T06:20:54.189Z,101185.84
2022-09-04T06:24:08.658Z,101186.41
2022-09-04T06:27:25.921Z,101192.91
2022-09-04T06:30:36.750Z,101189.19
2022-09-04T06:33:57.220Z,101195.63
2022-09-04T06:37:13.408Z,101197.88
2022-09-04T06:40:30.685Z,101192.97
2022-09-04T06:43:42.071Z,101196.00
2022-09-04T06:46:55.528Z,101201.72
2022-09-04T06:50:16.083Z,101203.13
2022-09-04T06:53:31.827Z,101201.66
2022-09-04T06:56:50.059Z,101204.31
2022-09-04T07:00:05.874Z,101211.47
2022-09-04T07:03:48.020Z,101218.00
2022-09-04T07:06:55.733Z,101226.03
2022-09-04T07:10:09.825Z,101237.25
2022-09-04T07:13:26.152Z,101240.56
2022-09-04T07:16:38.865Z,101248.59
2022-09-04T07:19:58.861Z,101247.94
2022-09-04T07:23:28.728Z,101241.38
2022-09-04T07:26:38.716Z,101239.91
2022-09-04T07:29:49.517Z,101240.00
2022-09-04T07:32:57.465Z,101243.91
2022-09-04T07:36:08.020Z,101249.53
2022-09-04T07:39:20.168Z,101253.44
2022-09-04T07:42:30.852Z,101258.78
2022-09-04T07:45:37.933Z,101265.16
2022-09-04T07:48:44.924Z,101266.09
2022-09-04T07:51:54.674Z,101268.72
2022-09-04T07:55:09.883Z,101261.47
2022-09-04T07:58:31.565Z,101264.75
2022-09-04T08:01:48.930Z,101275.78
2022-09-04T08:05:11.282Z,101282.97
2022-09-04T08:08:47.062Z,101292.81
2022-09-04T08:12:10.587Z,101293.44
2022-09-04T08:15:21.781Z,101291.16
2022-09-04T08:18:45.013Z,101295.31
2022-09-04T08:21:49.111Z,101285.38
2022-09-04T08:25:17.847Z,101284.78
2022-09-04T08:28:46.276Z,101289.34
2022-09-04T08:32:04.112Z,101293.03
2022-09-04T08:35:13.363Z,101293.50
2022-09-04T08:38:31.789Z,101291.84
2022-09-04T08:42:29.386Z,101288.38
2022-09-04T08:46:00.838Z,101284.22
2022-09-04T08:49:54.127Z,101292.81
2022-09-04T08:53:46.236Z,101300.22
2022-09-04T08:57:09.648Z,101307.13
2022-09-04T09:00:15.935Z,101290.59
2022-09-04T09:03:50.179Z,101284.75
2022-09-04T09:07:20.963Z,101291.59
2022-09-04T09:10:43.898Z,101282.63
2022-09-04T09:14:23.349Z,101277.22
2022-09-04T09:17:38.767Z,101289.25
2022-09-04T09:20:50.192Z,101282.03
2022-09-04T09:24:16.043Z,101287.25
2022-09-04T09:27:43.410Z,101283.16
2022-09-04T09:31:24.974Z,101283.47
2022-09-04T09:35:05.104Z,101295.06
2022-09-04T09:38:43.503Z,101290.59
2022-09-04T09:42:27.210Z,101282.31
2022-09-04T09:46:11.572Z,101278.06
2022-09-04T09:50:01.182Z,101276.59
2022-09-04T09:53:40.369Z,101279.72
2022-09-04T09:57:07.199Z,101289.50
2022-09-04T10:00:15.312Z,101279.19
2022-09-04T10:03:49.435Z,101291.63
2022-09-04T10:07:22.421Z,101279.31
2022-09-04T10:10:46.764Z,101279.44
2022-09-04T10:14:17.417Z,101288.59
2022-09-04T10:18:04.427Z,101298.03
2022-09-04T10:21:37.833Z,101300.44
2022-09-04T10:25:16.808Z,101288.53
2022-09-04T10:28:40.904Z,101291.69
2022-09-04T10:32:15.951Z,101291.06
2022-09-04T10:35:27.465Z,101296.03
2022-09-04T10:39:01.315Z,101298.41
2022-09-04T10:42:11.040Z,101291.31
2022-09-04T10:45:27.034Z,101298.44
2022-09-04T10:48:49.722Z,101294.09
2022-09-04T10:52:17.420Z,101285.97
2022-09-04T10:55:32.787Z,101294.94
2022-09-04T10:58:49.586Z,101284.34
2022-09-04T11:02:26.266Z,101292.94
2022-09-04T11:06:16.338Z,101281.72
2022-09-04T11:09:47.676Z,101300.16
2022-09-04T11:13:11.312Z,101301.56
2022-09-04T11:16:32.730Z,101297.50
2022-09-04T11:19:53.377Z,101294.09
2022-09-04T11:23:26.549Z,101294.69
2022-09-04T11:27:07.932Z,101301.84
2022-09-04T11:30:17.671Z,101292.84
2022-09-04T11:33:56.789Z,101282.59
2022-09-04T11:37:34.225Z,101272.50
2022-09-04T11:41:10.101Z,101264.38
2022-09-04T11:44:42.283Z,101272.19
2022-09-04T11:48:00.518Z,101267.38
2022-09-04T11:51:37.167Z,101274.00
2022-09-04T11:55:05.952Z,101271.25
2022-09-04T11:58:40.321Z,101261.03
2022-09-04T12:02:08.370Z,101253.63
2022-09-04T12:05:39.556Z,101255.91
2022-09-04T12:09:01.058Z,101255.38
2022-09-04T12:12:35.934Z,101263.47
2022-09-04T12:16:17.267Z,101264.38
2022-09-04T12:19:46.339Z,101259.13
2022-09-04T12:23:13.375Z,101257.56
2022-09-04T12:26:51.578Z,101253.28
2022-09-04T12:30:13.584Z,101246.59
2022-09-04T12:33:43.300Z,101252.22
2022-09-04T12:37:11.416Z,101252.53
2022-09-04T12:40:41.611Z,101252.16
2022-09-04T12:43:57.221Z,101254.81
2022-09-04T12:47:13.927Z,101251.09
2022-09-04T12:50:28.042Z,101250.97
2022-09-04T12:53:48.082Z,101262.22
2022-09-04T12:57:11.615Z,101264.66
2022-09-04T13:00:17.522Z,101271.88
2022-09-04T13:03:30.305Z,101263.75
2022-09-04T13:06:40.833Z,101257.97
2022-09-04T13:09:55.873Z,101268.25
2022-09-04T13:13:12.507Z,101254.03
2022-09-04T13:16:23.972Z,101269.94
2022-09-04T13:19:36.532Z,101272.75
2022-09-04T13:22:47.431Z,101297.84
2022-09-04T13:26:05.099Z,101281.00
2022-09-04T13:29:19.405Z,101285.84
2022-09-04T13:32:38.963Z,101289.44
2022-09-04T13:36:01.103Z,101283.91
2022-09-04T13:39:22.783Z,101273.97
2022-09-04T13:42:52.528Z,101285.13
2022-09-04T13:46:00.599Z,101288.31
2022-09-04T13:49:07.760Z,101278.06
2022-09-04T13:52:16.537Z,101285.31
2022-09-04T13:55:23.352Z,101273.97
2022-09-04T13:58:33.210Z,101278.09
2022-09-04T14:01:46.186Z,101273.00
2022-09-04T14:04:52.404Z,101274.81
2022-09-04T14:08:03.964Z,101270.56
2022-09-04T14:11:26.078Z,101274.63
2022-09-04T14:15:05.549Z,101268.09
2022-09-04T14:18:25.784Z,101268.41
2022-09-04T14:21:44.064Z,101269.81
2022-09-04T14:24:56.844Z,101271.13
2022-09-04T14:28:07.693Z,101270.28
2022-09-04T14:31:16.896Z,101276.94
2022-09-04T14:34:36.187Z,101283.34
2022-09-04T14:37:57.426Z,101287.59
2022-09-04T14:41:13.291Z,101269.28
2022-09-04T14:44:35.718Z,101274.59
2022-09-04T14:47:44.993Z,101274.63
2022-09-04T14:50:51.893Z,101276.16
2022-09-04T14:53:56.121Z,101267.03
2022-09-04T14:57:05.299Z,101260.72
2022-09-04T15:00:14.870Z,101265.63
2022-09-04T15:03:21.594Z,101259.50
2022-09-04T15:06:32.887Z,101265.56
2022-09-04T15:09:44.302Z,101265.50
2022-09-04T15:12:55.685Z,101273.84
2022-09-04T15:16:00.673Z,101267.56
2022-09-04T15:19:12.709Z,101262.84
2022-09-04T15:22:22.957Z,101267.19
2022-09-04T15:25:58.343Z,101260.47
2022-09-04T15:29:08.011Z,101255.50
2022-09-04T15:32:13.783Z,101255.88
2022-09-04T15:35:23.702Z,101253.91
2022-09-04T15:38:28.005Z,101261.34
2022-09-04T15:41:39.232Z,101254.31
2022-09-04T15:44:46.117Z,101265.25
2022-09-04T15:48:05.006Z,101256.47
2022-09-04T15:51:21.749Z,101268.97
2022-09-04T15:54:36.151Z,101256.13
2022-09-04T15:57:57.419Z,101258.66
2022-09-04T16:01:16.816Z,101252.69
2022-09-04T16:04:28.160Z,101264.34
2022-09-04T16:07:40.251Z,101261.50
2022-09-04T16:10:53.330Z,101266.63
2022-09-04T16:13:59.396Z,101258.94
2022-09-04T16:17:07.058Z,101257.09
2022-09-04T16:20:20.234Z,101262.03
2022-09-04T16:23:30.724Z,101264.59
2022-09-04T16:26:34.593Z,101264.16
2022-09-04T16:29:41.907Z,101274.78
2022-09-04T16:32:44.648Z,101274.38
2022-09-04T16:35:51.839Z,101269.38
2022-09-04T16:38:59.756Z,101270.25
2022-09-04T16:42:13.539Z,101282.41
2022-09-04T16:45:21.224Z,101284.22
2022-09-04T16:48:43.123Z,101286.31
2022-09-04T16:51:49.253Z,101287.31
2022-09-04T16:54:55.205Z,101284.91
2022-09-04T16:58:15.477Z,101293.69
2022-09-04T17:01:22.732Z,101290.94
2022-09-04T17:04:30.895Z,101291.16
2022-09-04T17:07:39.155Z,101292.66
2022-09-04T17:10:46.536Z,101290.56
2022-09-04T17:13:58.724Z,101294.47
2022-09-04T17:17:30.859Z,101300.31
2022-09-04T17:23:35.455Z,101297.41
2022-09-04T17:29:04.500Z,101293.72
2022-09-04T17:29:12.860Z,101291.69
2022-09-04T17:31:15.644Z,101297.91
2022-09-04T17:40:37.145Z,101303.28
2022-09-04T17:40:56.290Z,101306.69
2022-09-04T17:41:59.234Z,101318.28
2022-09-04T17:45:19.035Z,101315.13
2022-09-04T17:48:25.298Z,101321.63
2022-09-04T17:51:31.995Z,101324.63
2022-09-04T17:54:40.869Z,101331.78
2022-09-04T17:57:55.845Z,101334.31
2022-09-04T18:01:14.662Z,101338.66
2022-09-04T18:04:27.472Z,101344.56
2022-09-04T18:08:07.570Z,101345.44
2022-09-04T18:10:59.076Z,101352.50
2022-09-04T18:14:11.197Z,101351.69
2022-09-04T18:17:19.575Z,101352.38
2022-09-04T18:20:37.733Z,101358.09
2022-09-04T18:23:53.516Z,101356.50
2022-09-04T18:27:02.055Z,101354.03
2022-09-04T18:36:23.987Z,101375.13
2022-09-04T18:37:24.913Z,101379.38
2022-09-04T18:37:45.136Z,101384.31
2022-09-04T18:42:09.896Z,101392.28
2022-09-04T18:50:28.032Z,101397.06
2022-09-04T18:50:51.125Z,101386.69
2022-09-04T18:51:20.636Z,101391.00
2022-09-04T18:54:32.352Z,101386.13
2022-09-04T18:57:48.112Z,101390.69
2022-09-04T19:00:56.889Z,101392.81
2022-09-04T19:04:19.877Z,101391.19
2022-09-04T19:07:31.875Z,101385.75
2022-09-04T19:10:37.965Z,101393.47
2022-09-04T19:13:47.895Z,101394.13
2022-09-04T19:16:56.493Z,101399.81
2022-09-04T19:20:04.505Z,101400.47
2022-09-04T19:23:15.593Z,101399.25
2022-09-04T19:26:26.332Z,101406.16
2022-09-04T19:29:32.018Z,101404.50
2022-09-04T19:32:41.620Z,101408.72
2022-09-04T19:35:52.925Z,101404.00
2022-09-04T19:45:57.246Z,101401.78
2022-09-04T19:46:03.481Z,101397.88
2022-09-04T19:52:25.524Z,101402.75
2022-09-04T19:53:31.421Z,101400.94
2022-09-04T19:57:31.002Z,101401.25
2022-09-04T20:00:38.246Z,101409.22
2022-09-04T20:03:37.547Z,101397.78
2022-09-04T20:06:47.776Z,101408.38
2022-09-04T20:09:53.418Z,101400.78
2022-09-04T20:13:03.722Z,101405.91
2022-09-04T20:16:21.734Z,101403.91
2022-09-04T20:19:30.090Z,101407.94
2022-09-04T20:22:39.612Z,101407.47
2022-09-04T20:25:51.811Z,101415.53
2022-09-04T20:29:00.607Z,101473.53
2022-09-04T20:32:12.972Z,101464.13
2022-09-04T20:35:33.008Z,101461.66
2022-09-04T20:38:46.011Z,101454.84
2022-09-04T20:41:52.311Z,101461.41
2022-09-04T20:45:59.187Z,101468.66
2022-09-04T20:52:51.378Z,101470.88
2022-09-04T20:53:05.371Z,101484.50
2022-09-04T20:55:24.385Z,101459.53
2022-09-04T21:02:11.138Z,101465.59
2022-09-04T21:03:21.362Z,101473.56
2022-09-04T21:05:46.120Z,101478.13
2022-09-04T21:09:00.217Z,101483.81
2022-09-04T21:12:16.553Z,101481.44
2022-09-04T21:15:28.206Z,101499.06
2022-09-04T21:19:28.288Z,101496.00
2022-09-04T21:22:36.364Z,101499.47
2022-09-04T21:25:51.321Z,101499.59
2022-09-04T21:29:11.219Z,101504.22
2022-09-04T21:32:31.395Z,101511.25
2022-09-04T21:35:39.002Z,101515.31
2022-09-04T21:39:05.721Z,101517.50
2022-09-04T21:42:34.577Z,101515.72
2022-09-04T21:45:53.669Z,101517.47
2022-09-04T21:49:10.233Z,101527.78
2022-09-04T21:52:55.769Z,101534.38
2022-09-04T21:59:56.876Z,101546.38
2022-09-04T22:02:44.244Z,101550.59
2022-09-04T22:03:36.391Z,101539.19
2022-09-04T22:07:17.939Z,101534.72
2022-09-04T22:13:37.960Z,101533.22
2022-09-04T22:14:04.917Z,101546.38
2022-09-04T22:17:24.454Z,101533.63
2022-09-04T22:20:52.281Z,101539.03
2022-09-04T22:24:15.757Z,101536.75
2022-09-04T22:28:02.567Z,101536.75
2022-09-04T22:31:37.556Z,101545.34
2022-09-04T22:35:02.690Z,101542.31
2022-09-04T22:38:34.672Z,101548.56
2022-09-04T22:42:05.374Z,101545.31
2022-09-04T22:45:41.092Z,101545.81
2022-09-04T22:49:12.146Z,101554.06
2022-09-04T22:52:29.856Z,101556.00
2022-09-04T22:56:23.254Z,101553.69
2022-09-04T22:59:31.138Z,101557.22
2022-09-04T23:03:10.022Z,101566.53
2022-09-04T23:09:20.134Z,101564.94
2022-09-04T23:13:50.644Z,101556.94
2022-09-04T23:14:07.655Z,101563.81
2022-09-04T23:17:23.418Z,101567.59
2022-09-04T23:26:35.571Z,101559.38
2022-09-04T23:26:50.903Z,101563.16
2022-09-04T23:28:27.143Z,101561.28
2022-09-04T23:32:06.836Z,101564.03
2022-09-04T23:35:16.732Z,101565.91
2022-09-04T23:38:41.862Z,101566.31
2022-09-04T23:41:53.868Z,101574.44
2022-09-04T23:45:14.506Z,101578.97
2022-09-04T23:48:42.338Z,101574.25
2022-09-04T23:51:51.994Z,101579.63
2022-09-04T23:55:07.959Z,101577.91
2022-09-04T23:58:52.243Z,101572.91
